2018-08-17 - 17:07:00

SR: 0416 - SS: 1850

RWY: 25


OBSERVATION: n/a

RVR Mean 1 min: (Runway Visual Range)
A: P2000 - B: P2000 - C: P2000
RVR Mean 10 min:
A: P2000 - B: P2000 - C: P2000
WARNING: n/a
W25: 270-330(290-04kt) 02kt-06kt
W07: 230-340(300-02kt) 01kt-06kt
OTHER: n/a

QFE: (tats�chlicher Luftdruck) 1013.0 hPa = 29.91 inHg
QNH:(Luftdruck auf Meeresh�he) 1018.8 hPa = 30.06 inHg
Temperatur: 21.7 �C
Dew point(Taupunkt): 10.4 �C

METAR:  00167 SADL31 EDDG 171650 METAR EDDG 171650Z 28006KT CAVOK 23/10 Q1018 NOSIG= 
METAR (aus weather.noaa.gov):
2018/08/17 16:50 EDDG 171650Z 28006KT CAVOK 23/10 Q1018 NOSIG

TAF (aus weather.noaa.gov):
2018/08/17 12:27 TAF EDDG 171100Z 1712/1812 32004KT 9999 SCT025 TEMPO 1801/1807 3000 BR PROB30 TEMPO 1803/1806 0700 FG BKN001 BECMG 1808/1811 23008KT